createdAt,value
2022-10-15T00:00:16.457Z,86.53
2022-10-15T00:03:19.931Z,86.25
2022-10-15T00:06:23.148Z,85.70
2022-10-15T00:09:28.128Z,86.39
2022-10-15T00:12:31.320Z,85.88
2022-10-15T00:15:37.051Z,85.98
2022-10-15T00:18:41.122Z,87.69
2022-10-15T00:21:44.476Z,86.12
2022-10-15T00:24:49.063Z,85.79
2022-10-15T00:27:52.280Z,89.39
2022-10-15T00:31:01.708Z,86.30
2022-10-15T00:34:05.037Z,86.68
2022-10-15T00:37:08.489Z,86.23
2022-10-15T00:40:15.734Z,85.22
2022-10-15T00:43:18.962Z,85.08
2022-10-15T00:46:26.136Z,85.27
2022-10-15T00:49:32.544Z,84.45
2022-10-15T00:52:43.664Z,84.42
2022-10-15T00:55:48.350Z,84.63
2022-10-15T00:58:54.421Z,84.86
2022-10-15T01:01:57.658Z,86.33
2022-10-15T01:05:00.926Z,84.63
2022-10-15T01:08:04.313Z,84.47
2022-10-15T01:11:21.612Z,85.46
2022-10-15T01:14:36.811Z,85.05
2022-10-15T01:17:46.368Z,85.51
2022-10-15T01:20:56.417Z,85.41
2022-10-15T01:24:30.701Z,86.09
2022-10-15T01:27:43.522Z,86.18
2022-10-15T01:30:59.682Z,86.58
2022-10-15T01:34:05.751Z,86.67
2022-10-15T01:37:14.224Z,85.28
2022-10-15T01:40:22.332Z,84.67
2022-10-15T01:43:31.957Z,84.98
2022-10-15T01:46:59.377Z,84.45
2022-10-15T01:50:06.279Z,84.83
2022-10-15T01:53:12.404Z,84.48
2022-10-15T01:56:21.783Z,85.11
2022-10-15T01:59:29.213Z,84.93
2022-10-15T02:02:33.790Z,85.03
2022-10-15T02:05:43.689Z,86.00
2022-10-15T02:08:56.964Z,86.61
2022-10-15T02:12:10.250Z,86.33
2022-10-15T02:15:20.440Z,85.82
2022-10-15T02:18:32.675Z,84.82
2022-10-15T02:21:43.195Z,85.91
2022-10-15T02:24:55.514Z,87.34
2022-10-15T02:28:01.107Z,85.80
2022-10-15T02:31:05.256Z,85.64
2022-10-15T02:34:13.288Z,85.35
2022-10-15T02:37:19.619Z,86.33
2022-10-15T02:40:27.364Z,85.72
2022-10-15T02:43:32.243Z,84.49
2022-10-15T02:46:36.005Z,84.81
2022-10-15T02:49:40.679Z,85.65
2022-10-15T02:52:44.054Z,84.59
2022-10-15T02:55:48.139Z,83.48
2022-10-15T02:58:51.362Z,83.37
2022-10-15T03:01:55.985Z,84.42
2022-10-15T03:05:02.007Z,84.63
2022-10-15T03:08:05.732Z,85.40
2022-10-15T03:11:09.464Z,85.14
2022-10-15T03:14:14.519Z,84.79
2022-10-15T03:17:17.973Z,86.81
2022-10-15T03:20:22.631Z,85.40
2022-10-15T03:23:26.083Z,84.52
2022-10-15T03:26:39.003Z,84.73
2022-10-15T03:29:42.622Z,84.87
2022-10-15T03:32:45.944Z,84.64
2022-10-15T03:35:50.774Z,84.46
2022-10-15T03:38:54.107Z,86.47
2022-10-15T03:41:57.397Z,85.94
2022-10-15T03:45:10.049Z,86.18
2022-10-15T03:48:13.906Z,85.73
2022-10-15T03:51:22.735Z,86.36
2022-10-15T03:54:33.062Z,87.06
2022-10-15T03:57:36.760Z,85.42
2022-10-15T04:00:42.875Z,85.25
2022-10-15T04:03:47.149Z,84.48
2022-10-15T04:06:54.899Z,83.99
2022-10-15T04:09:58.318Z,84.49
2022-10-15T04:13:11.580Z,84.47
2022-10-15T04:16:16.599Z,83.54
2022-10-15T04:19:19.940Z,83.14
2022-10-15T04:22:34.890Z,83.45
2022-10-15T04:25:38.859Z,82.86
2022-10-15T04:28:42.160Z,83.34
2022-10-15T04:31:46.205Z,82.75
2022-10-15T04:34:49.603Z,82.16
2022-10-15T04:37:58.889Z,82.32
2022-10-15T04:41:04.927Z,82.09
2022-10-15T04:44:21.994Z,81.77
2022-10-15T04:47:30.642Z,81.44
2022-10-15T04:50:45.502Z,80.63
2022-10-15T04:53:58.048Z,80.95
2022-10-15T04:57:01.315Z,80.50
2022-10-15T05:00:05.544Z,80.15
2022-10-15T05:03:08.805Z,80.34
2022-10-15T05:06:34.289Z,80.89
2022-10-15T05:09:52.589Z,80.42
2022-10-15T05:12:56.990Z,81.19
2022-10-15T05:16:13.602Z,79.88
2022-10-15T05:19:18.063Z,79.65
2022-10-15T05:22:21.737Z,79.58
2022-10-15T05:25:36.503Z,79.73
2022-10-15T05:28:40.737Z,80.23
2022-10-15T05:31:44.040Z,79.71
2022-10-15T05:34:52.514Z,79.76
2022-10-15T05:37:55.880Z,78.67
2022-10-15T05:41:01.462Z,78.77
2022-10-15T05:44:05.006Z,79.09
2022-10-15T05:47:11.949Z,79.15
2022-10-15T05:50:17.154Z,78.82
2022-10-15T05:53:23.818Z,78.38
2022-10-15T05:56:40.100Z,78.13
2022-10-15T05:59:43.338Z,77.79
2022-10-15T06:02:46.679Z,78.31
2022-10-15T06:05:50.116Z,77.84
2022-10-15T06:08:54.082Z,78.31
2022-10-15T06:11:58.669Z,78.62
2022-10-15T06:15:01.894Z,78.99
2022-10-15T06:18:05.341Z,79.53
2022-10-15T06:21:09.012Z,78.94
2022-10-15T06:24:12.658Z,79.08
2022-10-15T06:27:17.326Z,79.42
2022-10-15T06:30:21.387Z,80.62
2022-10-15T06:33:24.635Z,79.23
2022-10-15T06:36:27.821Z,79.13
2022-10-15T06:39:32.556Z,78.71
2022-10-15T06:42:37.291Z,78.75
2022-10-15T06:45:42.662Z,77.94
2022-10-15T06:48:53.132Z,76.40
2022-10-15T06:52:01.022Z,75.40
2022-10-15T06:55:07.893Z,75.32
2022-10-15T06:58:12.558Z,75.51
2022-10-15T07:01:15.762Z,76.48
2022-10-15T07:04:18.935Z,73.86
2022-10-15T07:07:22.193Z,72.56
2022-10-15T07:10:26.695Z,71.54
2022-10-15T07:13:32.035Z,71.67
2022-10-15T07:16:39.472Z,71.28
2022-10-15T07:19:42.671Z,69.87
2022-10-15T07:22:45.972Z,69.65
2022-10-15T07:25:49.171Z,70.06
2022-10-15T07:28:53.822Z,69.04
2022-10-15T07:31:57.121Z,70.76
2022-10-15T07:35:00.304Z,69.39
2022-10-15T07:38:04.663Z,67.96
2022-10-15T07:41:09.082Z,68.13
2022-10-15T07:44:19.976Z,67.06
2022-10-15T07:47:23.549Z,66.23
2022-10-15T07:50:29.307Z,64.92
2022-10-15T07:53:37.028Z,64.42
2022-10-15T07:56:40.713Z,63.23
2022-10-15T07:59:45.299Z,60.51
2022-10-15T08:02:48.614Z,58.61
2022-10-15T08:05:56.344Z,57.88
2022-10-15T08:09:00.667Z,56.55
2022-10-15T08:12:07.157Z,55.41
2022-10-15T08:15:12.449Z,54.72
2022-10-15T08:18:15.827Z,55.29
2022-10-15T08:21:19.046Z,54.08
2022-10-15T08:24:22.302Z,53.29
2022-10-15T08:27:25.538Z,50.93
2022-10-15T08:30:34.806Z,51.12
2022-10-15T08:33:46.543Z,51.39
2022-10-15T08:36:49.715Z,50.81
2022-10-15T08:39:52.923Z,50.92
2022-10-15T08:42:56.908Z,50.82
2022-10-15T08:46:05.178Z,51.06
2022-10-15T08:49:13.987Z,50.37
2022-10-15T08:52:24.135Z,48.23
2022-10-15T08:55:35.804Z,48.46
2022-10-15T08:58:50.163Z,47.42
2022-10-15T09:02:00.220Z,48.44
2022-10-15T09:05:17.097Z,46.18
2022-10-15T09:08:26.649Z,44.57
2022-10-15T09:11:42.435Z,46.09
2022-10-15T09:14:48.953Z,44.57
2022-10-15T09:17:55.434Z,44.91
2022-10-15T09:21:03.623Z,44.47
2022-10-15T09:24:07.611Z,44.87
2022-10-15T09:27:17.423Z,45.14
2022-10-15T09:30:34.910Z,45.86
2022-10-15T09:33:44.887Z,46.05
2022-10-15T09:36:54.292Z,44.86
2022-10-15T09:40:23.538Z,45.58
2022-10-15T09:43:35.132Z,43.77
2022-10-15T09:46:45.322Z,43.86
2022-10-15T09:49:50.018Z,45.27
2022-10-15T09:53:11.327Z,42.78
2022-10-15T09:56:19.571Z,41.59
2022-10-15T09:59:24.878Z,40.96
2022-10-15T10:02:29.460Z,41.96
2022-10-15T10:05:38.135Z,43.86
2022-10-15T10:12:01.253Z,43.79
2022-10-15T10:15:08.740Z,45.46
2022-10-15T10:18:20.312Z,45.06
2022-10-15T10:21:27.712Z,45.82
2022-10-15T10:24:34.513Z,46.48
2022-10-15T10:27:37.770Z,46.45
2022-10-15T10:30:50.412Z,46.71
2022-10-15T10:33:53.831Z,47.12
2022-10-15T10:36:58.617Z,46.82
2022-10-15T10:40:02.380Z,46.17
2022-10-15T10:43:18.055Z,43.85
2022-10-15T10:46:24.420Z,42.06
2022-10-15T10:49:32.843Z,41.80
2022-10-15T10:52:39.055Z,41.82
2022-10-15T10:55:43.419Z,40.59
2022-10-15T10:58:53.814Z,40.37
2022-10-15T11:01:57.903Z,39.68
2022-10-15T11:05:01.137Z,40.94
2022-10-15T11:08:19.834Z,41.22
2022-10-15T11:11:31.516Z,41.68
2022-10-15T11:14:46.492Z,40.59
2022-10-15T11:17:59.093Z,41.18
2022-10-15T11:21:13.633Z,41.77
2022-10-15T11:24:25.978Z,43.10
2022-10-15T11:27:45.946Z,43.30
2022-10-15T11:30:56.195Z,42.64
2022-10-15T11:34:15.820Z,41.09
2022-10-15T11:37:35.229Z,41.41
2022-10-15T11:40:52.737Z,40.90
2022-10-15T11:44:09.677Z,39.12
2022-10-15T11:47:27.290Z,38.92
2022-10-15T11:50:34.326Z,39.00
2022-10-15T11:54:09.686Z,38.90
2022-10-15T11:57:20.207Z,38.54
2022-10-15T12:00:33.858Z,38.75
2022-10-15T12:03:42.128Z,39.42
2022-10-15T12:06:48.877Z,39.29
2022-10-15T12:09:55.729Z,39.58
2022-10-15T12:13:07.249Z,39.36
2022-10-15T12:16:21.611Z,38.48
2022-10-15T12:19:29.979Z,38.58
2022-10-15T12:22:37.837Z,39.12
2022-10-15T12:25:46.502Z,38.59
2022-10-15T12:28:53.430Z,38.63
2022-10-15T12:31:57.262Z,39.04
2022-10-15T12:35:06.010Z,38.89
2022-10-15T12:38:28.974Z,37.54
2022-10-15T12:41:38.563Z,37.93
2022-10-15T12:44:50.016Z,37.34
2022-10-15T12:47:56.085Z,38.52
2022-10-15T12:51:38.828Z,38.25
2022-10-15T12:54:43.471Z,38.06
2022-10-15T12:58:02.913Z,37.47
2022-10-15T13:01:28.242Z,37.59
2022-10-15T13:04:39.930Z,37.04
2022-10-15T13:07:48.621Z,37.82
2022-10-15T13:10:55.862Z,37.82
2022-10-15T13:14:02.676Z,37.83
2022-10-15T13:17:16.477Z,38.43
2022-10-15T13:20:34.686Z,39.29
2022-10-15T13:23:38.340Z,38.64
2022-10-15T13:26:42.025Z,39.35
2022-10-15T13:29:56.194Z,38.51
2022-10-15T13:33:01.237Z,38.63
2022-10-15T13:36:08.886Z,39.14
2022-10-15T13:39:30.374Z,38.67
2022-10-15T13:42:33.650Z,38.68
2022-10-15T13:45:37.472Z,38.69
2022-10-15T13:56:49.485Z,40.12
2022-10-15T13:59:54.230Z,40.09
2022-10-15T14:03:19.346Z,40.65
2022-10-15T14:06:25.898Z,40.76
2022-10-15T14:09:33.230Z,41.58
2022-10-15T14:12:36.489Z,41.48
2022-10-15T14:15:42.559Z,41.27
2022-10-15T14:18:49.393Z,41.48
2022-10-15T14:21:54.430Z,41.85
2022-10-15T14:24:58.291Z,41.67
2022-10-15T14:28:11.374Z,41.22
2022-10-15T14:31:31.236Z,41.17
2022-10-15T14:34:39.772Z,41.80
2022-10-15T14:37:44.399Z,41.85
2022-10-15T14:40:58.375Z,42.34
2022-10-15T14:44:04.392Z,42.63
2022-10-15T14:47:11.650Z,43.17
2022-10-15T14:50:14.933Z,43.68
2022-10-15T14:53:21.966Z,43.55
2022-10-15T14:56:31.288Z,43.14
2022-10-15T14:59:38.608Z,43.44
2022-10-15T15:02:42.305Z,43.41
2022-10-15T15:05:47.269Z,43.62
2022-10-15T15:08:52.141Z,43.54
2022-10-15T15:11:55.430Z,43.59
2022-10-15T15:14:59.163Z,43.60
2022-10-15T15:18:02.416Z,43.68
2022-10-15T15:21:08.901Z,44.26
2022-10-15T15:24:13.571Z,44.29
2022-10-15T15:27:26.242Z,45.05
2022-10-15T15:30:32.864Z,44.87
2022-10-15T15:33:36.546Z,45.29
2022-10-15T15:36:40.214Z,44.98
2022-10-15T15:39:44.927Z,45.21
2022-10-15T15:42:49.109Z,45.41
2022-10-15T15:45:52.383Z,45.61
2022-10-15T15:48:57.096Z,46.23
2022-10-15T15:52:00.447Z,46.21
2022-10-15T15:55:05.776Z,46.06
2022-10-15T15:58:09.039Z,46.46
2022-10-15T16:01:12.400Z,46.92
2022-10-15T16:04:15.822Z,48.81
2022-10-15T16:07:19.652Z,49.88
2022-10-15T16:10:24.861Z,50.27
2022-10-15T16:13:28.069Z,50.10
2022-10-15T16:16:31.257Z,49.74
2022-10-15T16:19:34.779Z,49.52
2022-10-15T16:22:38.002Z,50.05
2022-10-15T16:25:42.541Z,50.22
2022-10-15T16:28:45.877Z,49.03
2022-10-15T16:31:49.354Z,49.16
2022-10-15T16:34:52.555Z,49.45
2022-10-15T16:37:56.321Z,49.29
2022-10-15T16:41:01.995Z,49.49
2022-10-15T16:44:05.521Z,49.48
2022-10-15T16:47:08.786Z,49.29
2022-10-15T16:50:12.021Z,49.67
2022-10-15T16:53:15.348Z,49.57
2022-10-15T16:56:22.727Z,49.97
2022-10-15T16:59:26.046Z,50.03
2022-10-15T17:02:29.308Z,49.89
2022-10-15T17:05:32.891Z,50.41
2022-10-15T17:08:40.063Z,50.57
2022-10-15T17:11:46.968Z,50.34
2022-10-15T17:14:52.213Z,50.79
2022-10-15T17:17:55.414Z,50.59
2022-10-15T17:20:58.656Z,51.18
2022-10-15T17:24:04.391Z,51.27
2022-10-15T17:27:09.066Z,51.71
2022-10-15T17:30:12.775Z,52.00
2022-10-15T17:33:16.031Z,52.26
2022-10-15T17:36:21.080Z,52.09
2022-10-15T17:39:24.995Z,51.59
2022-10-15T17:42:29.660Z,52.11
2022-10-15T17:45:33.757Z,51.76
2022-10-15T17:48:38.135Z,51.71
2022-10-15T17:51:41.356Z,52.10
2022-10-15T17:54:45.240Z,52.19
2022-10-15T17:57:49.907Z,52.66
2022-10-15T18:00:55.215Z,52.12
2022-10-15T18:03:58.476Z,52.64
2022-10-15T18:07:01.736Z,52.69
2022-10-15T18:10:05.314Z,52.73
2022-10-15T18:13:09.992Z,52.70
2022-10-15T18:16:13.424Z,52.40
2022-10-15T18:19:16.630Z,52.37
2022-10-15T18:22:20.537Z,52.95
2022-10-15T18:25:23.809Z,52.05
2022-10-15T18:28:28.480Z,52.37
2022-10-15T18:31:31.787Z,52.32
2022-10-15T18:34:35.358Z,52.19
2022-10-15T18:37:38.509Z,52.65
2022-10-15T18:40:41.925Z,52.10
2022-10-15T18:43:51.037Z,51.71
2022-10-15T18:46:54.282Z,51.89
2022-10-15T18:49:57.458Z,52.61
2022-10-15T18:53:03.196Z,52.44
2022-10-15T18:56:07.592Z,52.61
2022-10-15T18:59:12.217Z,52.45
2022-10-15T19:02:15.583Z,52.66
2022-10-15T19:05:19.091Z,52.25
2022-10-15T19:08:22.287Z,52.47
2022-10-15T19:11:26.515Z,52.50
2022-10-15T19:14:31.373Z,52.30
2022-10-15T19:17:34.686Z,52.61
2022-10-15T19:20:39.642Z,52.50
2022-10-15T19:23:43.799Z,52.56
2022-10-15T19:26:49.018Z,52.24
2022-10-15T19:29:53.619Z,52.07
2022-10-15T19:32:56.898Z,52.76
2022-10-15T19:36:00.792Z,52.04
2022-10-15T19:39:07.168Z,52.00
2022-10-15T19:42:10.864Z,52.12
2022-10-15T19:48:24.829Z,52.15
2022-10-15T19:51:28.170Z,51.51
2022-10-15T19:54:31.426Z,51.65
2022-10-15T19:57:34.654Z,51.98
2022-10-15T20:00:39.426Z,51.61
2022-10-15T20:03:42.705Z,52.07
2022-10-15T20:06:46.172Z,52.60
2022-10-15T20:09:49.439Z,52.62
2022-10-15T20:12:52.607Z,52.67
2022-10-15T20:15:57.258Z,53.09
2022-10-15T20:19:02.488Z,53.40
2022-10-15T20:22:05.758Z,53.53
2022-10-15T20:25:09.637Z,53.91
2022-10-15T20:28:13.853Z,53.54
2022-10-15T20:31:21.650Z,53.16
2022-10-15T20:34:25.446Z,53.31
2022-10-15T20:37:28.740Z,53.56
2022-10-15T20:40:32.134Z,54.00
2022-10-15T20:43:35.410Z,53.75
2022-10-15T20:46:44.994Z,53.87
2022-10-15T20:49:51.994Z,53.61
2022-10-15T20:52:57.081Z,54.77
2022-10-15T20:56:01.538Z,54.87
2022-10-15T20:59:05.235Z,54.76
2022-10-15T21:02:10.017Z,55.31
2022-10-15T21:05:13.184Z,55.99
2022-10-15T21:08:16.447Z,56.12
2022-10-15T21:11:19.685Z,55.95
2022-10-15T21:14:23.038Z,55.77
2022-10-15T21:17:28.117Z,55.21
2022-10-15T21:20:31.529Z,55.27
2022-10-15T21:23:35.338Z,54.84
2022-10-15T21:26:38.557Z,55.68
2022-10-15T21:29:42.643Z,55.89
2022-10-15T21:32:47.291Z,55.50
2022-10-15T21:35:50.566Z,56.30
2022-10-15T21:38:55.105Z,55.98
2022-10-15T21:41:58.478Z,56.19
2022-10-15T21:45:01.651Z,56.37
2022-10-15T21:48:06.875Z,56.37
2022-10-15T21:51:12.625Z,57.13
2022-10-15T21:54:15.830Z,56.51
2022-10-15T21:57:19.082Z,56.68
2022-10-15T22:00:22.331Z,56.46
2022-10-15T22:03:27.012Z,56.82
2022-10-15T22:06:32.073Z,56.95
2022-10-15T22:09:35.445Z,56.77
2022-10-15T22:12:38.642Z,57.40
2022-10-15T22:15:41.999Z,57.03
2022-10-15T22:18:47.176Z,57.95
2022-10-15T22:21:50.427Z,57.12
2022-10-15T22:24:54.649Z,56.81
2022-10-15T22:27:57.882Z,56.63
2022-10-15T22:31:04.772Z,57.12
2022-10-15T22:34:09.407Z,57.17
2022-10-15T22:37:12.640Z,58.56
2022-10-15T22:40:16.013Z,58.17
2022-10-15T22:43:19.289Z,58.41
2022-10-15T22:46:22.420Z,58.83
2022-10-15T22:49:27.248Z,58.91
2022-10-15T22:52:30.479Z,58.99
2022-10-15T22:55:33.761Z,59.20
2022-10-15T22:58:37.756Z,59.52
2022-10-15T23:01:41.105Z,59.95
2022-10-15T23:04:45.811Z,59.83
2022-10-15T23:07:49.125Z,60.22
2022-10-15T23:10:52.381Z,60.07
2022-10-15T23:13:57.522Z,60.99
2022-10-15T23:17:00.684Z,60.88
2022-10-15T23:20:05.920Z,61.38
2022-10-15T23:23:09.137Z,60.61
2022-10-15T23:26:14.548Z,60.81
2022-10-15T23:29:20.462Z,60.81
2022-10-15T23:32:24.139Z,60.85
2022-10-15T23:35:28.868Z,61.32
2022-10-15T23:38:32.500Z,61.28
2022-10-15T23:41:35.778Z,61.29
2022-10-15T23:47:42.071Z,62.47
2022-10-15T23:50:46.614Z,62.04
2022-10-15T23:53:50.513Z,63.01
2022-10-15T23:56:53.764Z,61.63
2022-10-15T23:59:57.026Z,61.73
